Time;durP1;ratioP1;P1;durP2;ratioP2;P2;SDS_P1;SDS_P2;PMS_P1;PMS_P2;Temp;Humidity;BMP_temperature;BMP_pressure;BME280_temperature;BME280_humidity;BME280_pressure;Samples;Min_cycle;Max_cycle;Signal;HPM_P1;HPM_P2
2023/05/26 00:02:05;;;;;;;44.17;7.80;;;9.20;99.90;;;;;;5064123;28;20025;-71
2023/05/26 00:04:43;;;;;;;39.03;6.88;;;9.20;99.90;;;;;;5064286;28;20025;-71
2023/05/26 00:07:09;;;;;;;42.83;7.88;;;9.10;99.90;;;;;;5064431;28;20089;-71
2023/05/26 00:09:35;;;;;;;39.50;6.95;;;9.10;99.90;;;;;;5062820;28;20036;-72
2023/05/26 00:12:01;;;;;;;48.65;7.30;;;9.10;99.90;;;;;;5064200;28;20108;-71
2023/05/26 00:14:27;;;;;;;43.53;6.97;;;9.10;99.90;;;;;;5064469;28;20067;-71
2023/05/26 00:16:53;;;;;;;40.90;7.05;;;9.00;99.90;;;;;;5063654;28;20433;-71
2023/05/26 00:19:21;;;;;;;39.13;7.25;;;9.00;99.90;;;;;;5064092;28;20071;-71
2023/05/26 00:21:47;;;;;;;47.78;7.10;;;9.00;99.90;;;;;;5049212;28;20116;-71
2023/05/26 00:24:12;;;;;;;41.47;6.93;;;9.00;99.90;;;;;;5043914;28;20087;-71
2023/05/26 00:26:38;;;;;;;42.65;7.65;;;9.00;99.90;;;;;;5042481;28;20041;-71
2023/05/26 00:29:04;;;;;;;34.80;6.10;;;9.00;99.90;;;;;;5044206;28;20037;-71
2023/05/26 00:31:30;;;;;;;52.05;7.55;;;9.00;99.90;;;;;;5043798;28;20120;-73
2023/05/26 00:33:56;;;;;;;46.85;6.93;;;9.00;99.90;;;;;;5042906;28;20564;-70
2023/05/26 00:36:21;;;;;;;41.30;7.00;;;9.00;99.90;;;;;;5044167;28;20061;-72
2023/05/26 00:38:47;;;;;;;32.97;6.45;;;9.00;99.90;;;;;;5043625;28;20037;-72
2023/05/26 00:41:13;;;;;;;36.42;6.70;;;8.90;99.90;;;;;;5043839;28;20025;-71
2023/05/26 00:43:38;;;;;;;37.10;6.07;;;8.90;99.90;;;;;;5043979;28;20029;-71
2023/05/26 00:46:04;;;;;;;32.00;6.22;;;8.90;99.90;;;;;;5043569;28;20025;-71
2023/05/26 00:48:29;;;;;;;46.22;8.07;;;8.90;99.90;;;;;;5043958;28;20085;-72
2023/05/26 00:50:55;;;;;;;42.03;7.53;;;8.80;99.90;;;;;;5058230;28;20049;-71
2023/05/26 00:53:21;;;;;;;41.25;6.57;;;8.90;99.90;;;;;;5063014;28;20631;-71
2023/05/26 00:55:51;;;;;;;42.53;6.20;;;8.90;99.90;;;;;;5060449;28;20024;-72
2023/05/26 00:58:17;;;;;;;46.63;7.32;;;8.80;99.90;;;;;;5067356;28;20044;-71
2023/05/26 01:00:43;;;;;;;44.33;7.07;;;8.80;99.90;;;;;;5066876;28;20052;-70
2023/05/26 01:03:11;;;;;;;42.60;7.30;;;8.80;99.90;;;;;;5067324;28;20488;-71
2023/05/26 01:05:37;;;;;;;42.08;6.40;;;8.80;99.90;;;;;;5067352;28;20017;-72
2023/05/26 01:08:03;;;;;;;35.58;6.40;;;8.80;99.90;;;;;;5067157;28;20052;-72
2023/05/26 01:10:31;;;;;;;43.15;7.45;;;8.90;99.90;;;;;;5057049;28;20057;-72
2023/05/26 01:13:05;;;;;;;45.65;7.05;;;8.80;99.90;;;;;;5046137;28;20502;-71
2023/05/26 01:15:36;;;;;;;39.67;6.30;;;8.80;99.90;;;;;;5047118;28;20037;-72
2023/05/26 01:18:13;;;;;;;43.38;6.85;;;8.90;99.90;;;;;;5047309;28;20486;-70
2023/05/26 01:20:41;;;;;;;48.47;6.82;;;8.90;99.90;;;;;;5047214;28;20029;-71
2023/05/26 01:23:36;;;;;;;46.50;6.13;;;8.90;99.90;;;;;;5048658;28;20040;-72
2023/05/26 01:26:25;;;;;;;41.00;6.93;;;8.90;99.90;;;;;;5047314;28;20547;-71
2023/05/26 01:28:55;;;;;;;36.30;6.70;;;8.90;99.90;;;;;;5046854;28;20120;-71
2023/05/26 01:31:21;;;;;;;39.83;6.95;;;8.80;99.90;;;;;;5045828;28;20033;-71
2023/05/26 01:33:47;;;;;;;39.28;6.22;;;8.90;99.90;;;;;;5051375;28;20029;-71
2023/05/26 01:36:13;;;;;;;41.67;5.95;;;8.80;99.90;;;;;;5065064;28;20421;-71
2023/05/26 01:38:39;;;;;;;39.50;7.80;;;8.80;99.90;;;;;;5066777;28;20037;-72
2023/05/26 01:41:14;;;;;;;45.70;7.07;;;8.80;99.90;;;;;;5066620;28;20032;-71
2023/05/26 01:44:14;;;;;;;44.03;7.38;;;8.80;99.90;;;;;;5064974;28;20029;-71
2023/05/26 01:46:49;;;;;;;39.92;6.63;;;8.80;99.90;;;;;;5062544;28;20095;-71
2023/05/26 01:49:16;;;;;;;34.50;5.88;;;8.80;99.90;;;;;;5065083;28;20032;-71
2023/05/26 01:51:56;;;;;;;38.22;6.55;;;8.70;99.90;;;;;;5066157;28;20067;-71
2023/05/26 01:54:23;;;;;;;42.30;6.57;;;8.70;99.90;;;;;;5066378;28;20493;-70
2023/05/26 01:56:51;;;;;;;39.83;6.38;;;8.70;99.90;;;;;;5066064;28;20060;-70
2023/05/26 01:59:19;;;;;;;42.30;6.53;;;8.70;99.90;;;;;;5057400;28;20033;-71
2023/05/26 02:01:46;;;;;;;40.90;6.43;;;8.70;99.90;;;;;;5055682;28;20104;-71
2023/05/26 02:04:12;;;;;;;29.08;5.55;;;8.60;99.90;;;;;;5053762;28;20068;-72
2023/05/26 02:06:38;;;;;;;35.30;5.88;;;8.60;99.90;;;;;;5054464;28;20500;-72
2023/05/26 02:09:07;;;;;;;43.60;6.40;;;8.60;99.90;;;;;;5054398;28;20061;-72
2023/05/26 02:11:34;;;;;;;43.72;6.75;;;8.60;99.90;;;;;;5054202;28;20815;-72
2023/05/26 02:14:00;;;;;;;39.10;6.35;;;8.60;99.90;;;;;;5054840;28;20021;-72
2023/05/26 02:16:26;;;;;;;43.13;6.43;;;8.60;99.90;;;;;;5054344;28;20126;-71
2023/05/26 02:18:52;;;;;;;43.20;6.75;;;8.70;99.90;;;;;;5053010;28;20045;-72
2023/05/26 02:21:18;;;;;;;37.85;6.93;;;8.70;99.90;;;;;;5054400;28;20072;-71
2023/05/26 02:23:44;;;;;;;33.55;6.18;;;8.60;99.90;;;;;;5051750;28;20025;-72
2023/05/26 02:26:10;;;;;;;39.38;6.72;;;8.60;99.90;;;;;;5052655;28;20052;-72
2023/05/26 02:28:39;;;;;;;40.75;7.03;;;8.60;99.90;;;;;;5053328;28;20024;-73
2023/05/26 02:31:05;;;;;;;44.00;6.53;;;8.60;99.90;;;;;;5054990;28;20032;-71
2023/05/26 02:33:31;;;;;;;32.75;6.03;;;8.60;99.90;;;;;;5053632;28;20032;-72
2023/05/26 02:35:56;;;;;;;36.95;6.40;;;8.50;99.90;;;;;;5054356;28;20040;-71
2023/05/26 02:38:22;;;;;;;39.42;6.65;;;8.50;99.90;;;;;;5053244;28;20105;-71
2023/05/26 02:40:49;;;;;;;41.88;6.22;;;8.50;99.90;;;;;;5054051;28;20813;-71
2023/05/26 02:43:15;;;;;;;44.38;6.60;;;8.50;99.90;;;;;;5053156;28;20100;-71
2023/05/26 02:45:41;;;;;;;44.45;6.72;;;8.50;99.90;;;;;;5054311;28;20041;-71
2023/05/26 02:48:06;;;;;;;43.65;6.95;;;8.50;99.90;;;;;;5053119;28;20041;-70
2023/05/26 02:50:32;;;;;;;46.17;6.72;;;8.50;99.90;;;;;;5052767;28;20053;-71
2023/05/26 02:52:58;;;;;;;40.42;6.43;;;8.50;99.90;;;;;;5053834;28;20646;-70
2023/05/26 02:55:25;;;;;;;39.78;7.20;;;8.50;99.90;;;;;;5054835;28;20061;-71
2023/05/26 02:57:51;;;;;;;43.63;6.38;;;8.50;99.90;;;;;;5052345;28;20049;-71
2023/05/26 03:00:18;;;;;;;47.00;7.30;;;8.50;99.90;;;;;;5053151;28;20017;-70
2023/05/26 03:02:44;;;;;;;33.05;6.35;;;8.50;99.90;;;;;;5052120;28;20557;-70
2023/05/26 03:05:09;;;;;;;45.25;6.75;;;8.50;99.90;;;;;;5053789;28;20021;-71
2023/05/26 03:07:35;;;;;;;36.30;5.93;;;8.50;99.90;;;;;;5053421;28;20051;-72
2023/05/26 03:10:01;;;;;;;41.67;7.05;;;8.40;99.90;;;;;;5052974;28;20021;-70
2023/05/26 03:12:26;;;;;;;39.40;6.38;;;8.40;99.90;;;;;;5059541;28;20040;-70
2023/05/26 03:14:52;;;;;;;38.40;6.18;;;8.40;99.90;;;;;;5049582;28;20026;-70
2023/05/26 03:17:17;;;;;;;33.25;5.63;;;8.40;99.90;;;;;;5044922;28;20036;-70
2023/05/26 03:19:45;;;;;;;50.35;7.47;;;8.40;99.90;;;;;;5044807;28;20040;-70
2023/05/26 03:22:10;;;;;;;42.90;5.85;;;8.40;99.90;;;;;;5044282;28;20022;-70
2023/05/26 03:24:36;;;;;;;40.85;6.57;;;8.40;99.90;;;;;;5044677;28;20037;-71
2023/05/26 03:27:02;;;;;;;41.72;6.65;;;8.40;99.90;;;;;;5045081;28;20037;-70
2023/05/26 03:29:29;;;;;;;42.60;6.07;;;8.30;99.90;;;;;;5044754;28;20513;-70
2023/05/26 03:31:55;;;;;;;39.45;6.72;;;8.30;99.90;;;;;;5044871;28;20021;-71
2023/05/26 03:34:21;;;;;;;32.38;6.25;;;8.30;99.90;;;;;;5045684;28;20060;-71
2023/05/26 03:36:48;;;;;;;46.65;6.85;;;8.30;99.90;;;;;;5044411;28;20029;-71
2023/05/26 03:39:14;;;;;;;36.53;6.53;;;8.30;99.90;;;;;;5044608;28;20117;-71
2023/05/26 03:41:40;;;;;;;37.28;7.18;;;8.30;99.90;;;;;;5044373;28;20033;-71
2023/05/26 03:44:06;;;;;;;48.28;6.50;;;8.30;99.90;;;;;;5044408;28;20057;-71
2023/05/26 03:46:32;;;;;;;45.35;6.38;;;8.30;99.90;;;;;;5044618;28;20048;-72
2023/05/26 03:48:58;;;;;;;40.38;6.40;;;8.30;99.90;;;;;;5044494;28;20038;-71
2023/05/26 03:51:24;;;;;;;34.20;5.95;;;8.30;99.90;;;;;;5044121;28;20129;-71
2023/05/26 03:53:50;;;;;;;39.20;6.75;;;8.30;99.90;;;;;;5044424;28;20079;-70
2023/05/26 03:56:15;;;;;;;40.88;6.82;;;8.30;99.90;;;;;;5044613;28;20494;-70
2023/05/26 03:58:41;;;;;;;42.83;6.70;;;8.30;99.90;;;;;;5044108;28;20033;-71
2023/05/26 04:01:07;;;;;;;46.05;7.65;;;8.20;99.90;;;;;;5044503;28;20034;-71
2023/05/26 04:03:33;;;;;;;53.78;6.88;;;8.30;99.90;;;;;;5043016;28;20022;-71
2023/05/26 04:06:00;;;;;;;46.03;7.78;;;8.40;99.90;;;;;;5044483;28;20044;-72
2023/05/26 04:08:26;;;;;;;42.45;6.10;;;8.40;99.90;;;;;;5044504;28;20091;-70
2023/05/26 04:10:52;;;;;;;47.53;6.82;;;8.40;99.90;;;;;;5042254;28;20029;-71
2023/05/26 04:13:17;;;;;;;39.00;6.30;;;8.40;99.90;;;;;;5055178;28;20394;-71
2023/05/26 04:15:43;;;;;;;38.05;6.43;;;8.40;99.90;;;;;;5044433;28;20079;-71
2023/05/26 04:18:08;;;;;;;41.35;7.20;;;8.40;99.90;;;;;;5043662;28;20049;-71
2023/05/26 04:20:34;;;;;;;40.47;6.65;;;8.40;99.90;;;;;;5044531;28;20037;-71
2023/05/26 04:23:00;;;;;;;42.75;6.13;;;8.50;99.90;;;;;;5044112;28;20116;-72
2023/05/26 04:25:25;;;;;;;42.28;6.82;;;8.50;99.90;;;;;;5045539;28;20076;-70
2023/05/26 04:27:56;;;;;;;45.40;6.82;;;8.50;99.90;;;;;;5047076;28;20027;-71
2023/05/26 04:30:23;;;;;;;42.65;6.93;;;8.50;99.90;;;;;;5048401;28;20021;-71
2023/05/26 04:32:49;;;;;;;44.03;6.60;;;8.50;99.90;;;;;;5047937;28;20110;-71
2023/05/26 04:35:15;;;;;;;38.38;6.95;;;8.60;99.90;;;;;;5048353;28;20041;-71
2023/05/26 04:37:42;;;;;;;34.83;6.43;;;8.60;99.90;;;;;;5046566;28;20482;-72
2023/05/26 04:40:09;;;;;;;38.08;6.22;;;8.60;99.90;;;;;;5047999;28;20085;-71
2023/05/26 04:42:36;;;;;;;46.25;7.88;;;8.60;99.90;;;;;;5048240;28;20021;-71
2023/05/26 04:45:05;;;;;;;44.35;6.38;;;8.70;99.90;;;;;;5047843;28;20036;-71
2023/05/26 04:47:34;;;;;;;39.33;6.65;;;8.70;99.90;;;;;;5047785;28;20025;-71
2023/05/26 04:50:03;;;;;;;45.65;6.93;;;8.70;99.90;;;;;;5047798;28;20422;-71
2023/05/26 04:52:29;;;;;;;46.05;7.43;;;8.70;99.90;;;;;;5047530;28;20029;-71
2023/05/26 04:54:55;;;;;;;38.50;7.40;;;8.70;99.90;;;;;;5046494;28;20040;-70
2023/05/26 04:57:21;;;;;;;38.92;7.30;;;8.70;99.90;;;;;;5047653;28;20029;-71
2023/05/26 04:59:47;;;;;;;53.72;7.47;;;8.80;99.90;;;;;;5047127;28;20037;-70
2023/05/26 05:02:13;;;;;;;42.40;6.60;;;8.90;99.90;;;;;;5049928;28;20033;-70
2023/05/26 05:04:42;;;;;;;41.28;6.18;;;8.90;99.90;;;;;;5047279;28;20513;-71
2023/05/26 05:07:08;;;;;;;39.63;6.68;;;9.00;99.90;;;;;;5059846;28;20032;-70
2023/05/26 05:09:34;;;;;;;40.85;7.00;;;9.00;99.90;;;;;;5067445;28;20025;-71
2023/05/26 05:12:01;;;;;;;36.20;6.40;;;9.10;99.90;;;;;;5067292;28;20081;-71
2023/05/26 05:14:27;;;;;;;44.30;7.07;;;9.20;99.90;;;;;;5067113;28;20033;-70
2023/05/26 05:16:52;;;;;;;39.55;7.75;;;9.20;99.90;;;;;;5067089;28;20086;-70
2023/05/26 05:19:18;;;;;;;39.72;6.38;;;9.30;99.90;;;;;;5066938;28;20047;-70
2023/05/26 05:21:43;;;;;;;36.65;6.53;;;9.40;99.90;;;;;;5066527;28;20031;-70
2023/05/26 05:24:09;;;;;;;36.58;6.60;;;9.40;99.90;;;;;;5067115;28;20029;-70
2023/05/26 05:26:35;;;;;;;44.65;7.10;;;9.50;99.90;;;;;;5066931;28;20036;-71
2023/05/26 05:29:00;;;;;;;39.05;6.50;;;9.60;99.90;;;;;;5066505;28;20029;-71
2023/05/26 05:31:26;;;;;;;39.40;6.20;;;9.60;99.90;;;;;;5066965;28;20117;-70
2023/05/26 05:33:51;;;;;;;44.80;6.78;;;9.70;99.90;;;;;;5066135;28;20044;-70
2023/05/26 05:36:17;;;;;;;42.72;7.25;;;9.70;99.90;;;;;;5065514;28;20033;-71
2023/05/26 05:38:42;;;;;;;39.40;6.15;;;9.70;99.90;;;;;;5066070;28;20070;-71
2023/05/26 05:41:09;;;;;;;38.85;6.90;;;9.70;99.90;;;;;;5065510;28;20037;-70
2023/05/26 05:43:34;;;;;;;39.20;6.70;;;9.80;99.90;;;;;;5065989;28;20036;-71
2023/05/26 05:46:00;;;;;;;47.70;7.68;;;9.80;99.90;;;;;;5066183;28;20025;-71
2023/05/26 05:48:25;;;;;;;40.78;6.80;;;9.90;99.90;;;;;;5066271;28;20044;-70
2023/05/26 05:50:51;;;;;;;48.42;6.80;;;9.90;99.90;;;;;;5065907;28;20053;-71
2023/05/26 05:53:16;;;;;;;41.63;7.18;;;10.00;99.90;;;;;;5054914;28;20087;-70
2023/05/26 05:55:43;;;;;;;39.03;7.30;;;10.00;99.90;;;;;;5064196;28;20028;-70
2023/05/26 05:58:08;;;;;;;33.67;6.03;;;10.10;99.90;;;;;;5059521;28;20621;-69
2023/05/26 06:00:34;;;;;;;39.90;6.63;;;10.10;99.90;;;;;;5053037;28;20088;-70
2023/05/26 06:03:00;;;;;;;34.95;6.10;;;10.10;99.90;;;;;;5053360;28;20040;-69
2023/05/26 06:05:25;;;;;;;38.47;6.80;;;10.10;99.90;;;;;;5046159;28;20025;-70
2023/05/26 06:07:51;;;;;;;41.22;6.65;;;10.20;99.90;;;;;;5045896;28;20034;-70
2023/05/26 06:10:16;;;;;;;49.10;7.75;;;10.20;99.90;;;;;;5047210;28;20033;-70
2023/05/26 06:12:42;;;;;;;39.28;7.68;;;10.20;99.90;;;;;;5051717;28;20076;-70
2023/05/26 06:15:08;;;;;;;34.20;6.07;;;10.30;99.90;;;;;;5046968;28;20037;-70
2023/05/26 06:17:33;;;;;;;43.88;6.43;;;10.30;99.90;;;;;;5045821;28;20418;-70
2023/05/26 06:19:59;;;;;;;46.92;6.97;;;10.40;99.90;;;;;;5046098;28;20038;-69
2023/05/26 06:22:25;;;;;;;36.50;6.45;;;10.50;99.90;;;;;;5051607;28;20033;-69
2023/05/26 06:24:50;;;;;;;45.03;7.05;;;10.60;99.90;;;;;;5051524;28;20076;-70
2023/05/26 06:27:16;;;;;;;31.95;6.43;;;10.70;99.90;;;;;;5046752;28;20022;-70
2023/05/26 06:29:41;;;;;;;30.45;5.93;;;10.70;99.90;;;;;;5047765;28;20032;-70
2023/05/26 06:32:07;;;;;;;37.40;6.78;;;10.70;99.90;;;;;;5045948;28;20033;-70
2023/05/26 06:34:32;;;;;;;37.45;6.28;;;10.90;99.90;;;;;;5045769;28;20060;-70
2023/05/26 06:36:58;;;;;;;33.53;6.30;;;11.00;99.90;;;;;;5057571;28;20025;-70
2023/05/26 06:39:24;;;;;;;38.53;6.18;;;11.10;99.90;;;;;;5049397;28;20063;-69
2023/05/26 06:41:50;;;;;;;35.08;6.53;;;11.20;99.90;;;;;;5065312;28;20029;-70
2023/05/26 06:44:16;;;;;;;28.52;5.90;;;11.30;99.90;;;;;;5050808;28;20051;-69
2023/05/26 06:46:41;;;;;;;35.65;6.45;;;11.30;99.90;;;;;;5045750;28;20029;-70
2023/05/26 06:49:07;;;;;;;38.50;6.38;;;11.30;99.90;;;;;;5043989;28;20022;-71
2023/05/26 06:51:33;;;;;;;39.45;6.97;;;11.40;99.90;;;;;;5051536;28;20060;-70
2023/05/26 06:53:58;;;;;;;27.70;5.20;;;11.40;99.90;;;;;;5050729;28;20033;-70
2023/05/26 06:56:26;;;;;;;31.55;6.35;;;11.50;99.90;;;;;;5052963;28;20025;-69
2023/05/26 06:58:52;;;;;;;30.00;6.03;;;11.50;99.90;;;;;;5047783;28;20033;-68
2023/05/26 07:01:17;;;;;;;35.75;6.25;;;11.40;99.90;;;;;;5054477;28;20032;-70
2023/05/26 07:03:43;;;;;;;32.63;5.65;;;11.40;99.90;;;;;;5047126;28;20817;-72
2023/05/26 07:06:08;;;;;;;29.02;5.80;;;11.50;99.90;;;;;;5045200;28;20033;-70
2023/05/26 07:08:34;;;;;;;37.67;5.78;;;11.50;99.90;;;;;;5045189;28;20036;-69
2023/05/26 07:11:00;;;;;;;32.78;6.40;;;11.50;99.90;;;;;;5044757;28;20030;-70
2023/05/26 07:13:25;;;;;;;43.17;5.45;;;11.50;99.90;;;;;;5045193;28;20021;-69
2023/05/26 07:15:51;;;;;;;31.80;6.43;;;11.50;99.90;;;;;;5045815;28;20100;-69
2023/05/26 07:18:16;;;;;;;32.80;5.78;;;11.60;99.90;;;;;;5057434;28;20079;-70
2023/05/26 07:20:42;;;;;;;32.20;6.88;;;11.70;99.90;;;;;;5061292;28;20036;-70
2023/05/26 07:23:08;;;;;;;32.85;6.05;;;11.70;99.90;;;;;;5043549;28;20079;-70
2023/05/26 07:25:33;;;;;;;34.05;5.88;;;11.80;99.90;;;;;;5044585;28;20044;-69
2023/05/26 07:27:59;;;;;;;31.40;6.05;;;11.80;99.90;;;;;;5049179;28;20038;-69
2023/05/26 07:30:24;;;;;;;30.55;6.05;;;11.80;99.90;;;;;;5047519;28;20092;-70
2023/05/26 07:32:50;;;;;;;32.25;6.03;;;11.80;99.90;;;;;;5045110;28;20037;-70
2023/05/26 07:35:16;;;;;;;29.23;5.88;;;11.90;99.90;;;;;;5044685;28;20029;-70
2023/05/26 07:37:41;;;;;;;39.35;6.47;;;11.90;99.90;;;;;;5048749;28;20028;-70
2023/05/26 07:40:07;;;;;;;40.20;6.00;;;12.00;99.90;;;;;;5046504;28;20036;-69
2023/05/26 07:42:33;;;;;;;25.38;5.60;;;12.10;99.90;;;;;;5050434;28;20200;-72
2023/05/26 07:44:59;;;;;;;29.17;5.57;;;12.10;99.90;;;;;;5044524;28;20504;-71
2023/05/26 07:47:25;;;;;;;31.27;6.80;;;12.20;99.90;;;;;;5046800;28;20022;-70
2023/05/26 07:49:51;;;;;;;36.80;6.78;;;12.30;99.90;;;;;;5060575;28;20027;-71
2023/05/26 07:52:16;;;;;;;29.50;5.95;;;12.40;99.90;;;;;;5061412;28;20085;-70
2023/05/26 07:54:42;;;;;;;29.15;5.57;;;12.40;99.90;;;;;;5046256;28;20030;-71
2023/05/26 07:57:07;;;;;;;34.78;5.28;;;12.50;99.90;;;;;;5044252;28;20030;-71
2023/05/26 07:59:33;;;;;;;31.15;5.65;;;12.50;99.90;;;;;;5041797;28;20406;-71
2023/05/26 08:01:59;;;;;;;33.45;5.25;;;12.50;99.90;;;;;;5044626;28;20025;-74
2023/05/26 08:04:24;;;;;;;40.50;5.82;;;12.60;99.90;;;;;;5047250;28;20025;-70
2023/05/26 08:06:50;;;;;;;26.85;5.50;;;12.60;99.90;;;;;;5044061;28;20048;-70
2023/05/26 08:09:15;;;;;;;40.03;6.13;;;12.70;99.90;;;;;;5042893;28;20032;-70
2023/05/26 08:11:41;;;;;;;29.80;5.75;;;12.80;99.90;;;;;;5047085;28;20037;-70
2023/05/26 08:14:06;;;;;;;26.73;5.55;;;12.90;99.90;;;;;;5051779;28;20037;-71
2023/05/26 08:16:32;;;;;;;32.15;6.40;;;12.90;99.90;;;;;;5048141;28;20033;-70
2023/05/26 08:18:57;;;;;;;30.27;5.35;;;12.90;99.90;;;;;;5064215;28;20041;-70
2023/05/26 08:21:23;;;;;;;44.25;6.20;;;12.80;99.90;;;;;;5062430;28;20973;-71
2023/05/26 08:23:49;;;;;;;30.10;5.63;;;12.80;99.90;;;;;;5061572;28;20095;-70
2023/05/26 08:26:14;;;;;;;26.48;5.60;;;12.80;99.90;;;;;;5062036;28;20025;-70
2023/05/26 08:28:40;;;;;;;31.23;5.68;;;12.90;99.90;;;;;;5055110;28;20021;-71
2023/05/26 08:31:06;;;;;;;33.65;5.45;;;13.00;99.90;;;;;;5047413;28;20036;-70
2023/05/26 08:33:31;;;;;;;29.75;5.50;;;13.10;99.90;;;;;;5054602;28;20025;-71
2023/05/26 08:35:57;;;;;;;26.63;5.43;;;13.30;99.90;;;;;;5055008;28;20040;-71
2023/05/26 08:38:23;;;;;;;28.20;5.85;;;13.50;99.90;;;;;;5050976;28;20046;-70
2023/05/26 08:40:51;;;;;;;29.17;5.13;;;13.70;99.90;;;;;;5060270;28;20029;-71
2023/05/26 08:43:19;;;;;;;26.48;5.32;;;13.80;99.90;;;;;;5052101;28;20033;-70
2023/05/26 08:45:46;;;;;;;32.40;5.68;;;13.90;99.90;;;;;;5049758;28;20500;-70
2023/05/26 08:48:12;;;;;;;31.70;5.93;;;13.80;99.90;;;;;;5046056;28;20097;-70
2023/05/26 08:50:38;;;;;;;28.75;5.60;;;13.90;99.90;;;;;;5042275;28;20052;-71
2023/05/26 08:53:04;;;;;;;29.27;5.75;;;13.90;99.90;;;;;;5042150;28;20037;-70
2023/05/26 08:55:33;;;;;;;25.27;6.78;;;14.00;99.90;;;;;;5043502;28;20022;-72
2023/05/26 08:58:00;;;;;;;30.17;6.43;;;14.00;99.90;;;;;;5045090;28;20033;-72
2023/05/26 09:00:29;;;;;;;26.08;5.00;;;14.00;99.90;;;;;;5049670;28;20430;-69
2023/05/26 09:02:56;;;;;;;28.30;5.25;;;14.00;99.90;;;;;;5045861;28;20479;-70
2023/05/26 09:05:22;;;;;;;26.15;5.22;;;14.10;99.90;;;;;;5050479;28;20022;-70
2023/05/26 09:07:48;;;;;;;22.38;4.85;;;14.10;99.90;;;;;;5048541;28;20036;-69
2023/05/26 09:10:21;;;;;;;21.10;5.05;;;14.20;99.90;;;;;;5055031;28;20036;-70
2023/05/26 09:12:48;;;;;;;26.75;4.75;;;14.40;99.90;;;;;;5047789;28;20056;-70
2023/05/26 09:15:22;;;;;;;22.10;4.93;;;14.60;99.90;;;;;;5054955;28;20037;-69
2023/05/26 09:17:48;;;;;;;22.60;4.90;;;14.90;99.90;;;;;;5052051;28;20053;-71
2023/05/26 09:20:14;;;;;;;31.67;5.68;;;15.20;99.90;;;;;;5057025;28;20033;-71
2023/05/26 09:22:40;;;;;;;26.35;4.95;;;15.30;99.90;;;;;;5058489;28;20048;-68
2023/05/26 09:25:05;;;;;;;28.55;4.70;;;15.50;99.90;;;;;;5054507;28;20033;-71
2023/05/26 09:27:31;;;;;;;21.25;5.00;;;15.50;99.90;;;;;;5051886;28;20032;-69
2023/05/26 09:30:00;;;;;;;23.40;4.50;;;15.40;99.90;;;;;;5053642;28;20121;-70
2023/05/26 09:32:27;;;;;;;27.80;5.15;;;15.20;99.90;;;;;;5054007;28;20463;-69
2023/05/26 09:35:01;;;;;;;24.88;4.95;;;15.30;99.90;;;;;;5057548;28;20025;-71
2023/05/26 09:37:31;;;;;;;18.98;4.50;;;15.40;99.90;;;;;;5056008;28;20052;-70
2023/05/26 09:40:08;;;;;;;29.50;5.40;;;15.40;99.90;;;;;;5061889;28;20033;-71
2023/05/26 09:42:36;;;;;;;25.80;4.95;;;15.40;99.90;;;;;;5055822;28;20049;-71
2023/05/26 09:45:02;;;;;;;21.42;4.40;;;15.30;99.90;;;;;;5057439;28;20029;-72
2023/05/26 09:47:35;;;;;;;20.50;5.03;;;15.20;99.90;;;;;;5053316;28;20025;-71
2023/05/26 09:50:07;;;;;;;22.88;4.80;;;15.30;99.90;;;;;;5055298;28;20557;-72
2023/05/26 09:52:34;;;;;;;24.98;4.50;;;15.30;99.90;;;;;;5051667;28;20071;-71
2023/05/26 09:54:59;;;;;;;27.92;4.95;;;15.50;99.90;;;;;;5050906;28;20021;-72
2023/05/26 09:57:27;;;;;;;19.15;4.45;;;15.60;99.90;;;;;;5060598;28;20037;-70
2023/05/26 09:59:55;;;;;;;17.92;4.50;;;15.70;99.90;;;;;;5051329;28;20120;-70
2023/05/26 10:02:23;;;;;;;23.33;4.50;;;15.80;99.90;;;;;;5059017;28;20029;-71
2023/05/26 10:04:50;;;;;;;23.00;4.90;;;15.90;99.90;;;;;;5056557;28;20051;-71
2023/05/26 10:07:20;;;;;;;25.10;4.68;;;16.10;99.90;;;;;;5046347;28;20364;-71
2023/05/26 10:09:55;;;;;;;18.58;5.03;;;16.10;99.90;;;;;;5046398;28;20467;-71
2023/05/26 10:12:31;;;;;;;25.98;4.80;;;16.20;99.90;;;;;;5046387;28;20033;-69
2023/05/26 10:14:58;;;;;;;25.48;4.75;;;16.20;99.90;;;;;;5051177;28;20022;-70
2023/05/26 10:17:25;;;;;;;26.70;5.25;;;16.30;99.90;;;;;;5051681;28;20032;-70
2023/05/26 10:19:52;;;;;;;23.13;4.60;;;16.20;99.90;;;;;;5052878;28;20033;-70
2023/05/26 10:22:28;;;;;;;19.63;4.47;;;16.30;99.90;;;;;;5050155;28;20084;-71
2023/05/26 10:25:10;;;;;;;22.25;4.63;;;16.30;99.90;;;;;;5047789;28;20513;-72
2023/05/26 10:27:46;;;;;;;28.23;5.20;;;16.10;99.90;;;;;;5058063;28;20033;-71
2023/05/26 10:30:16;;;;;;;23.95;4.65;;;16.00;99.90;;;;;;5057196;28;20045;-70
2023/05/26 10:32:49;;;;;;;22.38;4.95;;;16.20;99.90;;;;;;5050000;28;20033;-70
2023/05/26 10:35:31;;;;;;;19.65;4.60;;;16.20;99.90;;;;;;5054715;28;20029;-70
2023/05/26 10:38:03;;;;;;;24.02;4.72;;;16.10;99.90;;;;;;5050499;28;20399;-70
2023/05/26 10:40:50;;;;;;;24.88;5.15;;;16.10;99.90;;;;;;5048128;28;20029;-71
2023/05/26 10:43:24;;;;;;;22.83;5.32;;;16.10;99.90;;;;;;5054870;28;20059;-70
2023/05/26 10:45:52;;;;;;;;;;;16.30;99.90;;;;;;5048697;28;20409;-69
2023/05/26 10:48:18;;;;;;;20.15;4.65;;;16.40;99.90;;;;;;5043565;28;19909;-69
2023/05/26 10:50:59;;;;;;;22.23;4.78;;;16.50;99.90;;;;;;5044759;28;20049;-70
2023/05/26 10:53:29;;;;;;;24.98;4.78;;;16.70;99.90;;;;;;5044537;28;20439;-70
2023/05/26 10:56:02;;;;;;;24.00;4.70;;;16.80;99.90;;;;;;5044222;28;20022;-69
2023/05/26 10:58:37;;;;;;;24.85;5.45;;;16.90;99.90;;;;;;5044516;28;20048;-71
2023/05/26 11:01:06;;;;;;;28.05;5.13;;;16.80;99.90;;;;;;5057075;28;20051;-70
2023/05/26 11:03:42;;;;;;;23.55;4.93;;;16.80;99.90;;;;;;5064446;28;20052;-69
2023/05/26 11:06:10;;;;;;;21.10;4.97;;;16.90;99.90;;;;;;5056601;28;20063;-70
2023/05/26 11:08:49;;;;;;;23.02;5.70;;;17.00;99.90;;;;;;5058079;28;20029;-70
2023/05/26 11:11:29;;;;;;;23.45;4.57;;;16.90;99.90;;;;;;5064129;28;20028;-70
2023/05/26 11:14:10;;;;;;;19.17;5.00;;;16.80;99.90;;;;;;5044098;28;20025;-70
2023/05/26 11:16:38;;;;;;;19.98;4.65;;;16.90;99.90;;;;;;5051324;28;20032;-71
2023/05/26 11:19:12;;;;;;;22.98;4.72;;;17.00;99.90;;;;;;5045904;28;20045;-70
2023/05/26 11:21:39;;;;;;;16.88;4.75;;;17.00;99.90;;;;;;5042197;28;20036;-70
2023/05/26 11:24:06;;;;;;;19.67;5.30;;;16.80;99.90;;;;;;5043974;28;20025;-71
2023/05/26 11:26:33;;;;;;;24.00;4.63;;;16.80;99.90;;;;;;5045728;28;20033;-70
2023/05/26 11:29:01;;;;;;;18.25;5.35;;;16.90;99.90;;;;;;5047409;28;20021;-70
2023/05/26 11:31:27;;;;;;;23.67;4.90;;;17.00;99.90;;;;;;5057622;28;20029;-70
2023/05/26 11:33:54;;;;;;;20.40;5.38;;;17.10;99.90;;;;;;5063375;28;20032;-70
2023/05/26 11:36:21;;;;;;;23.73;5.15;;;17.20;99.90;;;;;;5063146;28;20025;-70
2023/05/26 11:38:50;;;;;;;20.58;5.15;;;17.30;99.90;;;;;;5056858;28;20127;-71
2023/05/26 11:41:16;;;;;;;17.52;4.97;;;17.50;99.90;;;;;;5059963;28;20025;-70
2023/05/26 11:43:44;;;;;;;20.60;4.75;;;17.60;99.90;;;;;;5060578;28;20029;-71
2023/05/26 11:46:12;;;;;;;20.90;5.13;;;17.70;99.90;;;;;;5059349;28;20029;-70
2023/05/26 11:48:40;;;;;;;20.25;4.95;;;18.00;99.90;;;;;;5059113;28;20493;-71
2023/05/26 11:51:13;;;;;;;21.92;4.93;;;17.90;99.90;;;;;;5058890;28;20064;-72
2023/05/26 11:53:41;;;;;;;20.08;4.53;;;17.90;99.90;;;;;;5060860;28;20036;-69
2023/05/26 11:56:09;;;;;;;21.55;4.20;;;17.80;99.90;;;;;;5060725;28;20025;-71
2023/05/26 11:58:45;;;;;;;23.05;4.82;;;17.70;99.90;;;;;;5060343;28;20029;-71
2023/05/26 12:01:10;;;;;;;25.58;5.30;;;17.80;99.90;;;;;;5059638;28;20033;-70
2023/05/26 12:03:40;;;;;;;21.23;5.47;;;17.80;99.90;;;;;;5060246;28;20032;-71
2023/05/26 12:06:20;;;;;;;16.40;5.18;;;17.80;99.90;;;;;;5059111;28;20025;-71
2023/05/26 12:08:57;;;;;;;21.77;4.75;;;17.70;99.90;;;;;;5057387;28;20029;-70
2023/05/26 12:11:29;;;;;;;21.75;4.95;;;17.80;99.90;;;;;;5058437;28;20792;-69
2023/05/26 12:14:03;;;;;;;21.65;5.40;;;17.90;99.90;;;;;;5058899;28;20111;-71
2023/05/26 12:16:41;;;;;;;20.10;4.63;;;18.00;99.90;;;;;;5061090;28;20029;-69
2023/05/26 12:19:10;;;;;;;24.80;4.90;;;18.10;99.90;;;;;;5059535;28;20037;-69
2023/05/26 12:21:44;;;;;;;21.73;4.55;;;18.10;99.90;;;;;;5055833;28;20080;-71
2023/05/26 12:24:09;;;;;;;17.08;4.40;;;18.00;99.90;;;;;;5059565;28;20029;-70
2023/05/26 12:26:35;;;;;;;19.70;4.80;;;17.80;99.90;;;;;;5060112;28;20075;-71
2023/05/26 12:29:04;;;;;;;18.40;4.53;;;17.80;99.90;;;;;;5060107;28;20043;-69
2023/05/26 12:31:48;;;;;;;18.55;4.30;;;17.80;99.90;;;;;;5058863;28;20125;-69
2023/05/26 12:34:17;;;;;;;22.63;4.75;;;17.90;99.90;;;;;;5059996;28;20025;-70
2023/05/26 12:36:44;;;;;;;20.60;4.28;;;18.00;99.90;;;;;;5059178;28;20057;-69
2023/05/26 12:39:10;;;;;;;22.20;5.22;;;17.80;99.90;;;;;;5060442;28;20136;-74
2023/05/26 12:41:36;;;;;;;19.55;4.75;;;17.80;99.90;;;;;;5061440;28;20047;-69
2023/05/26 12:44:02;;;;;;;18.48;4.30;;;17.70;99.90;;;;;;5059789;28;20075;-70